createdAt,value
2023-05-06T00:00:56.628Z,12.05
2023-05-06T00:01:58.097Z,13.40
2023-05-06T00:03:02.321Z,10.00
2023-05-06T00:04:03.968Z,12.10
2023-05-06T00:05:06.011Z,9.65
2023-05-06T00:07:10.507Z,9.70
2023-05-06T00:08:12.279Z,11.45
2023-05-06T00:09:13.724Z,11.13
2023-05-06T00:10:15.772Z,12.48
2023-05-06T00:11:17.214Z,13.00
2023-05-06T00:12:18.662Z,9.13
2023-05-06T00:13:20.291Z,11.40
2023-05-06T00:14:21.721Z,9.43
2023-05-06T00:15:23.186Z,12.43
2023-05-06T00:16:24.659Z,13.88
2023-05-06T00:17:26.179Z,13.18
2023-05-06T00:18:27.641Z,14.35
2023-05-06T00:19:29.097Z,16.65
2023-05-06T00:20:31.324Z,15.20
2023-05-06T00:21:32.793Z,12.75
2023-05-06T00:22:34.247Z,16.55
2023-05-06T00:23:35.674Z,16.95
2023-05-06T00:24:37.084Z,16.55
2023-05-06T00:25:38.537Z,13.70
2023-05-06T00:26:39.967Z,11.80
2023-05-06T00:27:41.372Z,11.98
2023-05-06T00:28:42.791Z,11.32
2023-05-06T00:29:44.217Z,9.80
2023-05-06T00:30:45.654Z,12.20
2023-05-06T00:31:47.127Z,10.65
2023-05-06T00:32:48.711Z,11.98
2023-05-06T00:33:50.181Z,11.70
2023-05-06T00:34:51.651Z,12.52
2023-05-06T00:35:53.221Z,10.02
2023-05-06T00:36:54.686Z,12.15
2023-05-06T00:37:58.601Z,11.15
2023-05-06T00:39:00.181Z,10.63
2023-05-06T00:40:02.535Z,10.85
2023-05-06T00:41:04.102Z,11.25
2023-05-06T00:42:05.591Z,11.18
2023-05-06T00:43:07.342Z,10.98
2023-05-06T00:44:08.751Z,12.63
2023-05-06T00:45:10.851Z,11.18
2023-05-06T00:46:16.551Z,11.45
2023-05-06T00:47:18.935Z,11.15
2023-05-06T00:48:20.735Z,11.70
2023-05-06T00:49:23.244Z,11.18
2023-05-06T00:50:25.551Z,10.93
2023-05-06T00:51:27.449Z,10.73
2023-05-06T00:52:28.916Z,13.23
2023-05-06T00:53:30.493Z,11.13
2023-05-06T00:54:32.043Z,10.55
2023-05-06T00:55:33.719Z,11.95
2023-05-06T00:56:35.293Z,10.85
2023-05-06T00:57:37.373Z,11.43
2023-05-06T00:58:38.812Z,12.48
2023-05-06T00:59:40.336Z,12.50
2023-05-06T01:00:42.327Z,11.45
2023-05-06T01:02:47.844Z,9.40
2023-05-06T01:03:49.831Z,10.25
2023-05-06T01:04:51.704Z,11.38
2023-05-06T01:06:11.684Z,11.20
2023-05-06T01:07:26.627Z,11.30
2023-05-06T01:08:41.904Z,10.93
2023-05-06T01:10:03.044Z,11.18
2023-05-06T01:11:15.805Z,10.73
2023-05-06T01:12:27.561Z,11.65
2023-05-06T01:13:52.197Z,10.02
2023-05-06T01:15:16.672Z,10.23
2023-05-06T01:16:23.281Z,10.32
2023-05-06T01:17:28.212Z,10.88
2023-05-06T01:18:32.344Z,11.52
2023-05-06T01:19:42.277Z,10.75
2023-05-06T01:20:47.664Z,10.95
2023-05-06T01:21:54.665Z,11.02
2023-05-06T01:22:56.549Z,10.68
2023-05-06T01:23:58.680Z,12.68
2023-05-06T01:25:00.203Z,11.80
2023-05-06T01:26:01.637Z,13.10
2023-05-06T01:27:03.135Z,11.75
2023-05-06T01:28:07.405Z,10.63
2023-05-06T01:29:08.865Z,11.13
2023-05-06T01:30:10.959Z,11.70
2023-05-06T01:31:17.274Z,12.90
2023-05-06T01:32:44.832Z,10.30
2023-05-06T01:33:46.228Z,11.48
2023-05-06T01:35:03.315Z,11.43
2023-05-06T01:36:24.285Z,14.23
2023-05-06T01:37:47.382Z,14.02
2023-05-06T01:39:07.645Z,13.30
2023-05-06T01:40:10.065Z,12.50
2023-05-06T01:41:15.720Z,12.38
2023-05-06T01:42:18.207Z,11.52
2023-05-06T01:43:21.960Z,12.15
2023-05-06T01:44:24.814Z,11.50
2023-05-06T01:45:30.504Z,12.48
2023-05-06T01:46:32.936Z,11.43
2023-05-06T01:47:36.012Z,10.70
2023-05-06T01:48:39.350Z,12.20
2023-05-06T01:49:41.092Z,12.18
2023-05-06T01:50:43.582Z,11.77
2023-05-06T01:51:53.073Z,10.30
2023-05-06T01:53:01.493Z,10.40
2023-05-06T01:54:03.274Z,11.02
2023-05-06T01:55:05.460Z,11.73
2023-05-06T01:56:07.263Z,11.18
2023-05-06T01:57:08.698Z,12.50
2023-05-06T01:58:10.124Z,11.43
2023-05-06T01:59:11.566Z,12.60
2023-05-06T02:00:13.101Z,13.65
2023-05-06T02:01:14.548Z,10.65
2023-05-06T02:02:16.083Z,11.30
2023-05-06T02:03:17.655Z,14.77
2023-05-06T02:04:19.146Z,11.50
2023-05-06T02:05:20.675Z,13.00
2023-05-06T02:06:22.133Z,13.20
2023-05-06T02:07:23.584Z,10.77
2023-05-06T02:08:25.035Z,11.65
2023-05-06T02:09:26.525Z,12.48
2023-05-06T02:10:27.965Z,11.02
2023-05-06T02:11:29.480Z,13.15
2023-05-06T02:12:30.986Z,11.90
2023-05-06T02:13:32.432Z,12.68
2023-05-06T02:14:33.929Z,14.27
2023-05-06T02:15:35.399Z,13.88
2023-05-06T02:16:36.831Z,12.23
2023-05-06T02:17:38.686Z,12.80
2023-05-06T02:18:41.372Z,12.55
2023-05-06T02:19:42.776Z,12.77
2023-05-06T02:20:44.160Z,13.27
2023-05-06T02:21:45.608Z,12.98
2023-05-06T02:22:47.045Z,12.65
2023-05-06T02:23:48.486Z,12.45
2023-05-06T02:24:49.885Z,11.82
2023-05-06T02:25:51.778Z,12.60
2023-05-06T02:26:53.181Z,11.23
2023-05-06T02:27:54.615Z,11.95
2023-05-06T02:28:56.014Z,12.43
2023-05-06T02:29:57.421Z,13.15
2023-05-06T02:30:58.923Z,12.73
2023-05-06T02:32:00.538Z,12.77
2023-05-06T02:33:02.760Z,11.95
2023-05-06T02:34:05.037Z,12.48
2023-05-06T02:35:07.394Z,12.40
2023-05-06T02:36:08.977Z,12.02
2023-05-06T02:37:10.418Z,14.05
2023-05-06T02:38:11.825Z,13.45
2023-05-06T02:39:13.290Z,13.50
2023-05-06T02:40:14.921Z,11.98
2023-05-06T02:41:16.337Z,13.63
2023-05-06T02:42:17.940Z,12.63
2023-05-06T02:43:19.392Z,11.15
2023-05-06T02:44:20.801Z,13.23
2023-05-06T02:45:22.237Z,11.85
2023-05-06T02:46:23.777Z,12.43
2023-05-06T02:47:25.257Z,13.65
2023-05-06T02:48:26.826Z,12.93
2023-05-06T02:49:28.242Z,12.90
2023-05-06T02:50:29.640Z,12.48
2023-05-06T02:51:31.189Z,13.23
2023-05-06T02:52:33.348Z,12.90
2023-05-06T02:53:34.807Z,12.20
2023-05-06T02:54:36.312Z,12.45
2023-05-06T02:55:37.700Z,11.60
2023-05-06T02:56:39.094Z,11.95
2023-05-06T02:57:40.488Z,14.82
2023-05-06T02:58:41.946Z,12.30
2023-05-06T02:59:43.358Z,14.70
2023-05-06T03:00:44.857Z,13.10
2023-05-06T03:01:46.248Z,13.10
2023-05-06T03:02:47.745Z,12.07
2023-05-06T03:03:49.199Z,14.18
2023-05-06T03:04:50.900Z,11.82
2023-05-06T03:05:52.312Z,13.02
2023-05-06T03:06:53.803Z,14.68
2023-05-06T03:07:55.374Z,11.75
2023-05-06T03:08:57.176Z,12.50
2023-05-06T03:09:58.664Z,13.18
2023-05-06T03:11:00.192Z,12.35
2023-05-06T03:12:02.150Z,14.90
2023-05-06T03:14:05.138Z,12.63
2023-05-06T03:15:07.182Z,12.43
2023-05-06T03:16:13.492Z,12.25
2023-05-06T03:17:15.168Z,11.60
2023-05-06T03:18:16.560Z,10.15
2023-05-06T03:19:17.998Z,12.27
2023-05-06T03:20:20.406Z,12.38
2023-05-06T03:21:21.857Z,11.77
2023-05-06T03:22:23.301Z,10.88
2023-05-06T03:23:24.676Z,13.02
2023-05-06T03:24:26.131Z,12.45
2023-05-06T03:25:27.540Z,12.10
2023-05-06T03:26:28.983Z,16.08
2023-05-06T03:27:30.493Z,12.35
2023-05-06T03:28:32.058Z,12.00
2023-05-06T03:29:33.484Z,12.25
2023-05-06T03:30:34.916Z,12.88
2023-05-06T03:31:36.469Z,11.82
2023-05-06T03:32:38.208Z,14.38
2023-05-06T03:33:39.683Z,13.68
2023-05-06T03:34:41.089Z,12.18
2023-05-06T03:35:42.542Z,13.75
2023-05-06T03:36:43.997Z,12.50
2023-05-06T03:37:45.427Z,11.95
2023-05-06T03:38:46.866Z,11.73
2023-05-06T03:39:48.365Z,11.60
2023-05-06T03:40:50.089Z,11.50
2023-05-06T03:41:51.519Z,12.63
2023-05-06T03:42:52.932Z,11.85
2023-05-06T03:43:55.677Z,12.80
2023-05-06T03:44:57.088Z,11.77
2023-05-06T03:45:58.929Z,11.70
2023-05-06T03:47:00.564Z,12.30
2023-05-06T03:48:01.988Z,11.07
2023-05-06T03:49:03.514Z,10.27
2023-05-06T03:50:05.467Z,11.13
2023-05-06T03:51:06.990Z,10.35
2023-05-06T03:52:08.528Z,13.05
2023-05-06T03:53:09.979Z,12.45
2023-05-06T03:54:11.388Z,11.50
2023-05-06T03:55:12.862Z,10.93
2023-05-06T03:56:14.349Z,11.00
2023-05-06T03:57:16.059Z,13.48
2023-05-06T03:58:17.466Z,10.93
2023-05-06T03:59:18.945Z,11.60
2023-05-06T04:00:20.755Z,10.80
2023-05-06T04:01:22.201Z,11.23
2023-05-06T04:02:23.962Z,11.48
2023-05-06T04:03:25.617Z,11.30
2023-05-06T04:04:27.322Z,11.05
2023-05-06T04:05:28.794Z,11.77
2023-05-06T04:06:30.323Z,10.93
2023-05-06T04:07:31.755Z,10.50
2023-05-06T04:08:33.206Z,10.85
2023-05-06T04:09:34.717Z,11.48
2023-05-06T04:10:40.336Z,11.45
2023-05-06T04:11:41.716Z,11.48
2023-05-06T04:12:43.161Z,10.68
2023-05-06T04:13:44.667Z,12.27
2023-05-06T04:14:46.060Z,12.63
2023-05-06T04:15:48.728Z,11.48
2023-05-06T04:16:50.484Z,11.85
2023-05-06T04:17:52.021Z,11.80
2023-05-06T04:18:53.647Z,12.40
2023-05-06T04:19:55.488Z,12.07
2023-05-06T04:20:56.986Z,11.80
2023-05-06T04:21:58.603Z,12.70
2023-05-06T04:23:00.021Z,12.43
2023-05-06T04:24:01.422Z,11.68
2023-05-06T04:25:03.021Z,11.88
2023-05-06T04:26:05.509Z,13.52
2023-05-06T04:27:07.437Z,11.70
2023-05-06T04:28:10.778Z,13.82
2023-05-06T04:29:12.477Z,10.93
2023-05-06T04:30:14.046Z,13.00
2023-05-06T04:31:15.584Z,11.88
2023-05-06T04:32:17.990Z,11.57
2023-05-06T04:33:19.565Z,10.48
2023-05-06T04:34:21.059Z,10.15
2023-05-06T04:35:23.460Z,12.50
2023-05-06T04:36:24.956Z,10.98
2023-05-06T04:37:28.311Z,11.43
2023-05-06T04:38:30.512Z,13.13
2023-05-06T04:39:32.015Z,11.45
2023-05-06T04:40:36.449Z,11.73
2023-05-06T04:41:38.060Z,11.13
2023-05-06T04:42:39.499Z,11.00
2023-05-06T04:43:41.431Z,10.77
2023-05-06T04:44:43.452Z,11.15
2023-05-06T04:46:51.280Z,11.07
2023-05-06T04:47:53.177Z,11.52
2023-05-06T04:49:57.088Z,10.52
2023-05-06T04:50:58.560Z,10.20
2023-05-06T04:52:00.000Z,10.50
2023-05-06T04:53:01.476Z,9.90
2023-05-06T04:54:03.041Z,11.85
2023-05-06T04:55:04.898Z,10.52
2023-05-06T04:56:06.850Z,9.88
2023-05-06T04:57:08.282Z,10.60
2023-05-06T04:58:09.740Z,11.32
2023-05-06T04:59:11.204Z,12.95
2023-05-06T05:00:12.920Z,10.88
2023-05-06T05:01:14.379Z,11.00
2023-05-06T05:02:15.972Z,10.32
2023-05-06T05:03:17.596Z,10.63
2023-05-06T05:04:19.109Z,11.60
2023-05-06T05:05:20.864Z,12.65
2023-05-06T05:06:22.391Z,9.98
2023-05-06T05:07:23.863Z,10.18
2023-05-06T05:08:25.296Z,10.40
2023-05-06T05:09:26.718Z,10.55
2023-05-06T05:10:28.164Z,10.45
2023-05-06T05:11:29.571Z,11.02
2023-05-06T05:12:31.254Z,12.63
2023-05-06T05:13:32.671Z,11.88
2023-05-06T05:14:34.082Z,12.00
2023-05-06T05:15:35.461Z,10.52
2023-05-06T05:16:37.145Z,10.98
2023-05-06T05:17:38.732Z,11.00
2023-05-06T05:18:40.164Z,11.20
2023-05-06T05:19:41.571Z,11.48
2023-05-06T05:20:42.987Z,11.50
2023-05-06T05:21:44.400Z,10.13
2023-05-06T05:22:45.843Z,10.25
2023-05-06T05:23:47.236Z,10.43
2023-05-06T05:24:48.670Z,10.55
2023-05-06T05:25:50.193Z,10.23
2023-05-06T05:26:51.662Z,10.77
2023-05-06T05:27:53.185Z,11.20
2023-05-06T05:28:54.621Z,10.32
2023-05-06T05:29:56.622Z,10.98
2023-05-06T05:32:03.510Z,10.25
2023-05-06T05:33:05.012Z,10.07
2023-05-06T05:34:06.636Z,13.32
2023-05-06T05:35:10.598Z,11.32
2023-05-06T05:36:15.150Z,10.40
2023-05-06T05:37:16.593Z,10.45
2023-05-06T05:38:18.071Z,12.43
2023-05-06T05:39:19.508Z,11.80
2023-05-06T05:40:21.024Z,10.38
2023-05-06T05:41:22.538Z,12.20
2023-05-06T05:42:24.029Z,10.15
2023-05-06T05:43:26.889Z,11.18
2023-05-06T05:44:28.349Z,11.50
2023-05-06T05:45:29.821Z,12.10
2023-05-06T05:46:31.588Z,12.38
2023-05-06T05:47:33.095Z,11.15
2023-05-06T05:48:34.913Z,12.82
2023-05-06T05:49:36.337Z,11.10
2023-05-06T05:50:37.775Z,12.32
2023-05-06T05:51:39.238Z,12.88
2023-05-06T05:52:40.913Z,11.27
2023-05-06T05:53:42.524Z,11.50
2023-05-06T05:54:43.957Z,11.80
2023-05-06T05:55:45.330Z,12.80
2023-05-06T05:56:46.753Z,11.30
2023-05-06T05:57:48.175Z,10.95
2023-05-06T05:58:49.797Z,10.50
2023-05-06T05:59:51.196Z,10.68
2023-05-06T06:00:52.652Z,10.32
2023-05-06T06:01:54.125Z,10.43
2023-05-06T06:02:55.649Z,11.55
2023-05-06T06:03:58.063Z,10.05
2023-05-06T06:04:59.855Z,10.85
2023-05-06T06:06:01.417Z,11.43
2023-05-06T06:07:02.903Z,10.60
2023-05-06T06:08:04.788Z,10.60
2023-05-06T06:09:06.458Z,12.43
2023-05-06T06:10:08.609Z,10.38
2023-05-06T06:11:10.008Z,10.57
2023-05-06T06:12:11.439Z,10.05
2023-05-06T06:13:13.459Z,9.90
2023-05-06T06:15:16.224Z,10.10
2023-05-06T06:16:17.704Z,11.43
2023-05-06T06:17:19.225Z,10.75
2023-05-06T06:18:20.724Z,12.55
2023-05-06T06:19:22.161Z,9.68
2023-05-06T06:20:23.547Z,11.30
2023-05-06T06:21:25.046Z,12.25
2023-05-06T06:22:26.442Z,10.15
2023-05-06T06:23:27.846Z,10.88
2023-05-06T06:24:29.303Z,11.57
2023-05-06T06:25:30.860Z,9.98
2023-05-06T06:26:32.296Z,10.90
2023-05-06T06:27:36.843Z,10.23
2023-05-06T06:28:39.250Z,10.57
2023-05-06T06:29:40.747Z,10.27
2023-05-06T06:30:42.128Z,10.98
2023-05-06T06:31:43.564Z,10.82
2023-05-06T06:32:53.786Z,11.38
2023-05-06T06:33:55.225Z,12.07
2023-05-06T06:34:56.643Z,11.70
2023-05-06T06:35:58.380Z,10.80
2023-05-06T06:36:59.855Z,11.48
2023-05-06T06:38:01.546Z,12.07
2023-05-06T06:39:03.390Z,11.25
2023-05-06T06:40:05.465Z,11.88
2023-05-06T06:41:07.216Z,10.88
2023-05-06T06:42:08.602Z,13.15
2023-05-06T06:43:10.010Z,12.88
2023-05-06T06:44:11.558Z,13.38
2023-05-06T06:45:13.931Z,11.35
2023-05-06T06:46:15.621Z,12.70
2023-05-06T06:47:17.134Z,11.43
2023-05-06T06:48:18.903Z,11.90
2023-05-06T06:49:20.324Z,11.27
2023-05-06T06:50:21.879Z,10.57
2023-05-06T06:51:23.344Z,11.38
2023-05-06T06:52:24.885Z,10.80
2023-05-06T06:53:26.322Z,10.77
2023-05-06T06:54:27.817Z,12.35
2023-05-06T06:55:29.249Z,10.27
2023-05-06T06:56:31.789Z,12.68
2023-05-06T06:57:33.232Z,10.68
2023-05-06T06:58:34.617Z,11.98
2023-05-06T06:59:36.024Z,10.73
2023-05-06T07:00:37.733Z,12.27
2023-05-06T07:01:41.476Z,10.50
2023-05-06T07:02:43.090Z,10.95
2023-05-06T07:03:44.566Z,10.48
2023-05-06T07:04:46.076Z,10.82
2023-05-06T07:05:48.122Z,12.60
2023-05-06T07:07:50.887Z,11.48
2023-05-06T07:08:52.360Z,10.82
2023-05-06T07:09:53.790Z,11.00
2023-05-06T07:10:55.502Z,10.55
2023-05-06T07:11:58.510Z,11.75
2023-05-06T07:12:59.971Z,12.45
2023-05-06T07:14:01.450Z,11.05
2023-05-06T07:15:06.765Z,10.88
2023-05-06T07:16:08.236Z,11.73
2023-05-06T07:17:09.646Z,11.88
2023-05-06T07:18:11.218Z,11.27
2023-05-06T07:19:12.706Z,11.77
2023-05-06T07:20:14.154Z,11.35
2023-05-06T07:21:15.579Z,11.98
2023-05-06T07:22:17.025Z,13.38
2023-05-06T07:23:18.448Z,11.30
2023-05-06T07:24:19.866Z,11.95
2023-05-06T07:25:21.256Z,12.30
2023-05-06T07:26:22.666Z,11.13
2023-05-06T07:27:24.180Z,11.68
2023-05-06T07:28:25.805Z,11.57
2023-05-06T07:29:27.276Z,13.48
2023-05-06T07:30:28.841Z,12.07
2023-05-06T07:31:32.894Z,12.02
2023-05-06T07:32:34.328Z,10.32
2023-05-06T07:33:35.807Z,11.43
2023-05-06T07:34:37.261Z,12.50
2023-05-06T07:35:38.696Z,11.65
2023-05-06T07:36:40.862Z,13.75
2023-05-06T07:37:42.373Z,13.57
2023-05-06T07:38:43.784Z,11.57
2023-05-06T07:39:45.387Z,11.38
2023-05-06T07:40:46.795Z,11.30
2023-05-06T07:41:48.208Z,11.55
2023-05-06T07:42:49.669Z,10.57
2023-05-06T07:43:51.292Z,12.00
2023-05-06T07:44:52.675Z,11.82
2023-05-06T07:46:02.126Z,10.90
2023-05-06T07:47:03.843Z,11.15
2023-05-06T07:48:05.886Z,12.38
2023-05-06T07:50:09.007Z,10.73
2023-05-06T07:51:10.561Z,13.60
2023-05-06T07:52:11.993Z,13.35
2023-05-06T07:53:13.860Z,12.13
2023-05-06T07:54:15.356Z,14.25
2023-05-06T07:55:16.920Z,11.85
2023-05-06T07:56:18.440Z,10.73
2023-05-06T07:57:19.860Z,14.93
2023-05-06T07:58:21.285Z,12.75
2023-05-06T07:59:23.469Z,12.10
2023-05-06T08:00:24.891Z,12.98
2023-05-06T08:01:28.933Z,13.73
2023-05-06T08:02:31.946Z,13.55
2023-05-06T08:03:33.548Z,13.82
2023-05-06T08:04:35.893Z,11.65
2023-05-06T08:05:37.413Z,12.05
2023-05-06T08:06:39.007Z,28.20
2023-05-06T08:07:41.838Z,15.13
2023-05-06T08:08:43.282Z,14.23
2023-05-06T08:09:44.996Z,15.65
2023-05-06T08:10:46.441Z,12.82
2023-05-06T08:11:48.121Z,14.98
2023-05-06T08:12:49.594Z,48.30
2023-05-06T08:13:51.137Z,16.35
2023-05-06T08:14:54.731Z,13.15
2023-05-06T08:15:56.196Z,12.07
2023-05-06T08:16:57.671Z,16.20
2023-05-06T08:18:07.045Z,13.20
2023-05-06T08:19:15.911Z,14.95
2023-05-06T08:20:17.332Z,13.60
2023-05-06T08:21:18.729Z,14.85
2023-05-06T08:22:20.181Z,13.60
2023-05-06T08:23:21.749Z,14.00
2023-05-06T08:24:23.162Z,14.00
2023-05-06T08:25:24.581Z,13.73
2023-05-06T08:26:26.111Z,14.10
2023-05-06T08:27:27.494Z,16.20
2023-05-06T08:28:29.349Z,16.38
2023-05-06T08:29:30.779Z,16.38
2023-05-06T08:30:32.223Z,13.38
2023-05-06T08:31:33.856Z,14.38
2023-05-06T08:32:35.721Z,13.63
2023-05-06T08:33:37.230Z,14.05
2023-05-06T08:34:38.729Z,14.55
2023-05-06T08:36:42.614Z,13.10
2023-05-06T08:37:44.078Z,14.73
2023-05-06T08:38:50.481Z,14.50
2023-05-06T08:39:51.942Z,14.25
2023-05-06T08:40:54.678Z,14.50
2023-05-06T08:41:57.910Z,13.63
2023-05-06T08:42:59.906Z,16.90
2023-05-06T08:45:03.641Z,15.18
2023-05-06T08:46:05.136Z,14.80
2023-05-06T08:47:06.769Z,17.08
2023-05-06T08:48:09.140Z,17.45
2023-05-06T08:49:10.936Z,17.52
2023-05-06T08:50:12.769Z,17.33
2023-05-06T08:51:17.874Z,16.52
2023-05-06T08:52:21.297Z,15.98
2023-05-06T08:53:22.970Z,16.83
2023-05-06T08:54:27.460Z,19.10
2023-05-06T08:55:30.772Z,20.05
2023-05-06T08:56:33.481Z,20.60
2023-05-06T08:57:35.513Z,17.60
2023-05-06T08:59:41.508Z,15.23
2023-05-06T09:00:43.546Z,15.85
2023-05-06T09:02:46.569Z,15.73
2023-05-06T09:03:48.781Z,17.13
2023-05-06T09:04:52.289Z,16.38
2023-05-06T09:05:54.217Z,18.25
2023-05-06T09:06:57.794Z,16.73
2023-05-06T09:07:59.242Z,18.63
2023-05-06T09:09:00.798Z,17.55
2023-05-06T09:10:06.698Z,16.90
2023-05-06T09:11:29.234Z,16.83
2023-05-06T09:12:30.750Z,16.27
2023-05-06T09:13:32.256Z,16.92
2023-05-06T09:14:33.650Z,18.70
2023-05-06T09:15:42.681Z,20.33
2023-05-06T09:16:47.242Z,19.98
2023-05-06T09:17:48.727Z,17.55
2023-05-06T09:18:50.168Z,17.55
2023-05-06T09:19:59.254Z,17.92
2023-05-06T09:21:04.283Z,18.73
2023-05-06T09:22:06.029Z,18.80
2023-05-06T09:23:09.438Z,17.45
2023-05-06T09:24:12.836Z,18.25
2023-05-06T09:25:14.700Z,17.63
2023-05-06T09:26:16.327Z,15.82
2023-05-06T09:27:17.760Z,16.38
2023-05-06T09:28:19.228Z,16.45
2023-05-06T09:29:20.911Z,18.67
2023-05-06T09:30:22.338Z,16.85
2023-05-06T09:31:25.968Z,19.17
2023-05-06T09:32:28.461Z,29.42
2023-05-06T09:33:29.944Z,20.40
2023-05-06T09:34:31.426Z,15.52
2023-05-06T09:35:43.263Z,17.00
2023-05-06T09:36:45.233Z,19.48
2023-05-06T09:38:48.296Z,22.30
2023-05-06T09:39:53.338Z,19.83
2023-05-06T09:40:55.315Z,15.70
2023-05-06T09:42:58.367Z,19.92
2023-05-06T09:43:59.818Z,14.93
2023-05-06T09:45:02.341Z,15.38
2023-05-06T09:46:06.022Z,14.80
2023-05-06T09:47:07.585Z,15.15
2023-05-06T09:48:09.702Z,14.77
2023-05-06T09:49:11.938Z,14.23
2023-05-06T09:50:14.024Z,16.33
2023-05-06T09:51:15.902Z,13.43
2023-05-06T09:52:19.312Z,14.10
2023-05-06T09:53:22.186Z,13.40
2023-05-06T09:54:24.606Z,14.27
2023-05-06T09:55:27.396Z,13.45
2023-05-06T09:56:31.096Z,13.95
2023-05-06T09:57:33.309Z,15.05
2023-05-06T09:58:35.951Z,12.93
2023-05-06T09:59:38.008Z,11.95
2023-05-06T10:00:39.858Z,11.52
2023-05-06T10:01:41.938Z,13.10
2023-05-06T10:02:45.745Z,12.07
2023-05-06T10:03:48.961Z,11.50
2023-05-06T10:04:51.114Z,11.35
2023-05-06T10:05:54.424Z,11.30
2023-05-06T10:06:56.671Z,12.70
2023-05-06T10:07:58.986Z,10.93
2023-05-06T10:09:01.821Z,11.90
2023-05-06T10:10:04.558Z,11.85
2023-05-06T10:11:06.924Z,12.35
2023-05-06T10:12:08.945Z,14.23
2023-05-06T10:14:12.041Z,12.13
2023-05-06T10:15:13.660Z,11.65
2023-05-06T10:16:15.937Z,14.20
2023-05-06T10:17:18.970Z,13.45
2023-05-06T10:18:21.797Z,21.00
2023-05-06T10:19:25.767Z,13.93
2023-05-06T10:20:30.271Z,11.18
2023-05-06T10:21:35.870Z,14.88
2023-05-06T10:22:47.667Z,11.02
2023-05-06T10:23:57.295Z,11.35
2023-05-06T10:25:06.252Z,11.25
2023-05-06T10:26:11.289Z,13.63
2023-05-06T10:27:14.002Z,44.05
2023-05-06T10:28:19.534Z,17.55
2023-05-06T10:29:35.428Z,11.23
2023-05-06T10:30:38.869Z,13.13
2023-05-06T10:31:49.017Z,11.02
2023-05-06T10:32:52.558Z,10.40
2023-05-06T10:33:54.806Z,10.77
2023-05-06T10:34:58.626Z,10.40
2023-05-06T10:36:07.749Z,9.88
2023-05-06T10:37:11.521Z,10.15
2023-05-06T10:38:37.667Z,11.07
2023-05-06T10:39:42.232Z,12.43
2023-05-06T10:40:44.531Z,11.45
2023-05-06T10:41:47.839Z,9.98
2023-05-06T10:42:49.273Z,12.77
2023-05-06T10:43:56.558Z,11.40
2023-05-06T10:45:06.087Z,11.02
2023-05-06T10:46:18.210Z,13.20
2023-05-06T10:47:19.918Z,13.98
2023-05-06T10:48:21.330Z,15.13
2023-05-06T10:49:22.780Z,11.50
2023-05-06T10:50:27.964Z,11.02
2023-05-06T10:51:29.531Z,10.98
2023-05-06T10:52:58.872Z,12.15
2023-05-06T10:54:11.054Z,12.88
2023-05-06T10:55:36.415Z,10.50
2023-05-06T10:56:47.947Z,10.52
2023-05-06T10:57:55.630Z,10.48
2023-05-06T10:58:57.828Z,10.70
2023-05-06T10:59:59.399Z,10.15
2023-05-06T11:01:00.853Z,10.88
2023-05-06T11:02:02.217Z,9.98
2023-05-06T11:03:23.914Z,11.52
2023-05-06T11:04:25.762Z,11.63
2023-05-06T11:05:27.408Z,10.35
2023-05-06T11:06:32.920Z,12.50
2023-05-06T11:07:34.385Z,10.52
2023-05-06T11:08:36.076Z,12.90
2023-05-06T11:10:00.846Z,10.30
2023-05-06T11:11:45.664Z,10.27
2023-05-06T11:12:52.747Z,8.63
2023-05-06T11:13:54.382Z,9.70
2023-05-06T11:15:19.488Z,9.10
2023-05-06T11:16:49.926Z,8.93
2023-05-06T11:17:53.094Z,9.68
2023-05-06T11:18:55.415Z,9.20
2023-05-06T11:20:26.614Z,9.60
2023-05-06T11:21:31.002Z,9.23
2023-05-06T11:22:39.603Z,9.02
2023-05-06T11:23:46.913Z,9.18
2023-05-06T11:24:48.450Z,8.80
2023-05-06T11:25:51.237Z,10.52
2023-05-06T11:26:53.227Z,8.57
2023-05-06T11:29:02.071Z,8.10
2023-05-06T11:30:04.708Z,10.13
2023-05-06T11:31:07.836Z,8.35
2023-05-06T11:32:22.206Z,9.88
2023-05-06T11:33:27.571Z,9.50
2023-05-06T11:34:30.982Z,9.18
2023-05-06T11:35:36.796Z,8.18
2023-05-06T11:36:49.525Z,8.80
2023-05-06T11:37:52.113Z,8.38
2023-05-06T11:38:54.196Z,7.90
2023-05-06T11:40:56.948Z,6.40
2023-05-06T11:42:00.116Z,7.55
2023-05-06T11:43:14.965Z,7.10
2023-05-06T11:44:27.407Z,7.30
2023-05-06T11:45:40.661Z,7.25
2023-05-06T11:46:43.812Z,6.78
2023-05-06T11:47:45.591Z,6.75
2023-05-06T11:48:47.158Z,9.32
2023-05-06T11:49:53.199Z,11.30
2023-05-06T11:50:55.685Z,9.35
2023-05-06T11:51:57.249Z,7.93
2023-05-06T11:52:58.692Z,6.90
2023-05-06T11:54:08.674Z,7.15
2023-05-06T11:55:11.275Z,8.30
2023-05-06T11:56:12.707Z,8.18
2023-05-06T11:57:14.184Z,7.82
2023-05-06T11:58:17.474Z,6.60
2023-05-06T11:59:34.871Z,7.78
2023-05-06T12:00:36.255Z,6.75
2023-05-06T12:01:39.166Z,6.65
2023-05-06T12:02:41.022Z,7.28
2023-05-06T12:03:42.581Z,5.78
2023-05-06T12:04:49.904Z,6.03
2023-05-06T12:05:52.271Z,6.25
2023-05-06T12:06:55.512Z,5.47
2023-05-06T12:07:57.064Z,5.68
2023-05-06T12:08:58.632Z,6.15
2023-05-06T12:10:04.041Z,5.70
2023-05-06T12:11:07.984Z,5.55
2023-05-06T12:12:11.056Z,5.53
2023-05-06T12:13:12.935Z,5.97
2023-05-06T12:14:14.700Z,7.45
2023-05-06T12:15:16.611Z,6.68
2023-05-06T12:16:18.286Z,6.30
2023-05-06T12:17:20.126Z,6.20
2023-05-06T12:18:23.327Z,6.10
2023-05-06T12:19:24.958Z,6.25
2023-05-06T12:20:26.671Z,6.55
2023-05-06T12:21:29.290Z,6.28
2023-05-06T12:22:30.800Z,6.00
2023-05-06T12:23:32.434Z,6.38
2023-05-06T12:24:33.941Z,5.72
2023-05-06T12:25:35.438Z,5.80
2023-05-06T12:26:45.765Z,5.90
2023-05-06T12:27:47.230Z,6.97
2023-05-06T12:29:06.068Z,7.82
2023-05-06T12:30:09.257Z,5.93
2023-05-06T12:31:21.510Z,7.20
2023-05-06T12:32:23.094Z,6.20
2023-05-06T12:33:24.704Z,5.93
2023-05-06T12:34:36.447Z,6.95
2023-05-06T12:35:39.711Z,6.20
2023-05-06T12:36:42.797Z,6.18
2023-05-06T12:37:44.201Z,6.55
2023-05-06T12:39:00.711Z,6.70
2023-05-06T12:40:02.346Z,6.43
2023-05-06T12:41:04.331Z,6.03
2023-05-06T12:43:08.484Z,5.80
2023-05-06T12:44:32.713Z,7.38
2023-05-06T12:45:34.213Z,7.30
2023-05-06T12:46:35.646Z,7.53
2023-05-06T12:47:37.157Z,6.07
2023-05-06T12:48:38.938Z,7.50
2023-05-06T12:50:00.580Z,11.73
2023-05-06T12:51:17.960Z,6.32
2023-05-06T12:52:21.922Z,6.35
2023-05-06T12:53:34.740Z,6.20
2023-05-06T12:54:36.744Z,5.95
2023-05-06T12:56:39.949Z,9.85
2023-05-06T12:57:41.346Z,15.05
2023-05-06T12:58:42.788Z,6.60
2023-05-06T12:59:48.021Z,6.55
2023-05-06T13:00:49.469Z,6.75
2023-05-06T13:01:50.884Z,5.90
2023-05-06T13:02:52.383Z,5.85
2023-05-06T13:03:58.379Z,6.80
2023-05-06T13:04:59.813Z,8.55
2023-05-06T13:06:01.281Z,7.05
2023-05-06T13:07:03.038Z,12.40
2023-05-06T13:08:04.638Z,8.85
2023-05-06T13:09:06.451Z,10.07
2023-05-06T13:10:08.655Z,7.70
2023-05-06T13:11:10.686Z,6.88
2023-05-06T13:12:12.081Z,9.32
2023-05-06T13:13:13.657Z,7.22
2023-05-06T13:14:15.090Z,7.85
2023-05-06T13:15:16.644Z,7.35
2023-05-06T13:16:18.215Z,6.93
2023-05-06T13:17:19.855Z,6.65
2023-05-06T13:18:22.056Z,6.78
2023-05-06T13:19:32.179Z,6.40
2023-05-06T13:20:34.634Z,6.47
2023-05-06T13:21:37.738Z,6.57
2023-05-06T13:22:51.046Z,8.30
2023-05-06T13:23:55.628Z,6.65
2023-05-06T13:24:57.036Z,6.15
2023-05-06T13:26:04.721Z,5.72
2023-05-06T13:27:07.139Z,6.07
2023-05-06T13:28:08.575Z,7.63
2023-05-06T13:29:10.019Z,6.22
2023-05-06T13:30:11.854Z,6.75
2023-05-06T13:31:13.507Z,6.13
2023-05-06T13:32:14.964Z,6.32
2023-05-06T13:33:16.371Z,6.53
2023-05-06T13:34:18.081Z,5.20
2023-05-06T13:35:19.477Z,5.93
2023-05-06T13:36:23.229Z,6.22
2023-05-06T13:37:24.615Z,6.43
2023-05-06T13:38:26.296Z,6.03
2023-05-06T13:39:27.724Z,5.45
2023-05-06T13:40:29.112Z,7.35
2023-05-06T13:41:30.796Z,7.20
2023-05-06T13:42:32.275Z,5.38
2023-05-06T13:43:33.919Z,5.72
2023-05-06T13:44:35.700Z,5.20
2023-05-06T13:45:37.106Z,5.57
2023-05-06T13:46:38.613Z,6.15
2023-05-06T13:47:40.168Z,6.32
2023-05-06T13:48:41.641Z,6.10
2023-05-06T13:49:43.104Z,6.00
2023-05-06T13:50:48.434Z,4.80
2023-05-06T13:51:50.072Z,5.18
2023-05-06T13:52:51.694Z,6.53
2023-05-06T13:53:53.112Z,5.57
2023-05-06T13:54:54.561Z,6.82
2023-05-06T13:55:55.960Z,5.90
2023-05-06T13:56:58.245Z,5.65
2023-05-06T13:57:59.680Z,5.50
2023-05-06T13:59:01.117Z,6.03
2023-05-06T14:00:02.745Z,4.95